createdAt,value
2023-03-24T00:03:26.931Z,99093
2023-03-24T00:09:19.291Z,99077
2023-03-24T00:15:11.272Z,99070
2023-03-24T00:21:02.921Z,99069
2023-03-24T00:26:55.190Z,99067
2023-03-24T00:32:46.948Z,99055
2023-03-24T00:38:39.295Z,99051
2023-03-24T00:44:32.481Z,99040
2023-03-24T00:50:23.624Z,99044
2023-03-24T00:56:16.477Z,99035
2023-03-24T01:02:08.105Z,99031
2023-03-24T01:08:00.962Z,99026
2023-03-24T01:13:52.330Z,99019
2023-03-24T01:19:44.350Z,99020
2023-03-24T01:25:35.863Z,99013
2023-03-24T01:31:28.938Z,99004
2023-03-24T01:37:20.705Z,98999
2023-03-24T01:43:12.873Z,98985
2023-03-24T01:49:04.785Z,98983
2023-03-24T01:54:56.536Z,98978
2023-03-24T02:00:49.606Z,98980
2023-03-24T02:06:41.552Z,98961
2023-03-24T02:12:33.452Z,98939
2023-03-24T02:18:25.967Z,98926
2023-03-24T02:24:18.037Z,98900
2023-03-24T02:30:09.887Z,98898
2023-03-24T02:36:02.009Z,98884
2023-03-24T02:41:54.245Z,98895
2023-03-24T02:47:46.185Z,98880
2023-03-24T02:53:38.758Z,98887
2023-03-24T02:59:30.091Z,98890
2023-03-24T03:05:21.065Z,98892
2023-03-24T03:11:13.540Z,98881
2023-03-24T03:17:05.746Z,98877
2023-03-24T03:22:57.650Z,98888
2023-03-24T03:28:50.227Z,98876
2023-03-24T03:34:43.222Z,98850
2023-03-24T03:40:35.035Z,98874
2023-03-24T03:46:27.022Z,98893
2023-03-24T03:52:19.158Z,98885
2023-03-24T03:58:11.143Z,98897
2023-03-24T04:04:02.600Z,98902
2023-03-24T04:09:54.471Z,98900
2023-03-24T04:15:45.879Z,98891
2023-03-24T04:21:39.156Z,98882
2023-03-24T04:27:33.562Z,98901
2023-03-24T04:33:27.326Z,98905
2023-03-24T04:39:19.141Z,98899
2023-03-24T04:45:10.265Z,98889
2023-03-24T04:51:01.777Z,98895
2023-03-24T04:56:54.139Z,98905
2023-03-24T05:02:46.719Z,98918
2023-03-24T05:08:38.046Z,98928
2023-03-24T05:14:29.892Z,98929
2023-03-24T05:20:21.678Z,98939
2023-03-24T05:26:13.354Z,98948
2023-03-24T05:32:05.521Z,98949
2023-03-24T05:37:57.301Z,98946
2023-03-24T05:43:49.216Z,98951
2023-03-24T05:49:41.525Z,98992
2023-03-24T06:20:27.776Z,99049
2023-03-24T06:45:22.148Z,99106
2023-03-24T07:03:17.214Z,99122
2023-03-24T07:09:15.360Z,99140
2023-03-24T07:16:17.693Z,99149
2023-03-24T07:22:10.392Z,99150
2023-03-24T07:28:09.221Z,99157
2023-03-24T07:34:09.531Z,99180
2023-03-24T07:40:41.290Z,99191
2023-03-24T07:46:47.819Z,99205
2023-03-24T07:52:53.671Z,99190
2023-03-24T07:59:03.836Z,99196
2023-03-24T08:05:01.906Z,99212
2023-03-24T08:11:08.086Z,99206
2023-03-24T08:17:20.674Z,99194
2023-03-24T08:23:32.808Z,99196
2023-03-24T08:29:37.740Z,99190
2023-03-24T08:35:57.236Z,99186
2023-03-24T08:42:03.082Z,99192
2023-03-24T09:54:04.391Z,99244
2023-03-24T10:05:57.014Z,99248
2023-03-24T10:11:56.083Z,99257
2023-03-24T10:53:32.751Z,99267
2023-03-24T11:22:53.213Z,99284
2023-03-24T11:29:13.653Z,99286
2023-03-24T11:36:06.353Z,99277
2023-03-24T11:41:56.577Z,99269
2023-03-24T11:47:50.070Z,99278
2023-03-24T11:53:48.504Z,99275
2023-03-24T11:59:43.507Z,99273
2023-03-24T12:05:38.411Z,99261
2023-03-24T12:11:32.021Z,99264
2023-03-24T12:17:24.833Z,99270
2023-03-24T12:23:18.264Z,99278
2023-03-24T12:29:12.254Z,99281
2023-03-24T12:35:08.022Z,99272
2023-03-24T12:41:00.107Z,99270
2023-03-24T12:46:56.302Z,99251
2023-03-24T12:53:10.984Z,99256
2023-03-24T12:59:09.400Z,99255
2023-03-24T13:05:01.954Z,99267
2023-03-24T13:10:55.027Z,99260
2023-03-24T13:16:50.489Z,99241
2023-03-24T13:22:46.577Z,99234
2023-03-24T13:28:38.700Z,99244
2023-03-24T13:34:30.967Z,99239
2023-03-24T13:40:23.278Z,99243
2023-03-24T13:46:18.244Z,99232
2023-03-24T13:52:14.146Z,99229
2023-03-24T13:58:07.697Z,99237
2023-03-24T14:03:59.532Z,99236
2023-03-24T14:09:51.954Z,99228
2023-03-24T14:15:43.939Z,99235
2023-03-24T14:21:38.743Z,99221
2023-03-24T14:27:36.015Z,99222
2023-03-24T14:33:30.081Z,99230
2023-03-24T14:39:24.356Z,99220
2023-03-24T14:51:27.930Z,99208
2023-03-24T14:57:25.971Z,99216
2023-03-24T15:03:19.792Z,99226
2023-03-24T15:09:14.084Z,99222
2023-03-24T15:15:07.772Z,99211
2023-03-24T15:21:03.930Z,99238
2023-03-24T15:26:57.667Z,99234
2023-03-24T15:32:52.615Z,99236
2023-03-24T15:38:46.440Z,99228
2023-03-24T15:44:43.727Z,99213
2023-03-24T15:50:38.018Z,99224
2023-03-24T15:56:33.057Z,99203
2023-03-24T16:02:26.020Z,99202
2023-03-24T16:08:22.034Z,99202
2023-03-24T16:14:14.540Z,99187
2023-03-24T16:20:06.917Z,99182
2023-03-24T16:25:57.920Z,99181
2023-03-24T16:31:50.654Z,99181
2023-03-24T16:37:43.345Z,99183
2023-03-24T16:43:35.917Z,99185
2023-03-24T16:49:28.791Z,99198
2023-03-24T16:55:21.318Z,99200
2023-03-24T17:01:13.662Z,99216
2023-03-24T17:07:07.468Z,99240
2023-03-24T17:13:01.996Z,99276
2023-03-24T17:18:54.443Z,99308
2023-03-24T17:24:49.521Z,99313
2023-03-24T17:30:45.591Z,99319
2023-03-24T17:36:38.659Z,99319
2023-03-24T17:42:30.234Z,99313
2023-03-24T17:48:23.036Z,99320
2023-03-24T17:54:15.593Z,99319
2023-03-24T18:00:08.239Z,99321
2023-03-24T18:05:59.899Z,99323
2023-03-24T18:11:51.715Z,99313
2023-03-24T18:17:44.201Z,99321
2023-03-24T18:23:38.433Z,99320
2023-03-24T18:29:35.787Z,99326
2023-03-24T18:35:31.133Z,99329
2023-03-24T18:41:23.484Z,99326
2023-03-24T18:47:16.818Z,99324
2023-03-24T18:53:11.648Z,99314
2023-03-24T18:59:06.518Z,99310
2023-03-24T19:05:02.404Z,99310
2023-03-24T19:11:10.431Z,99320
2023-03-24T19:17:06.438Z,99322
2023-03-24T19:23:00.029Z,99326
2023-03-24T19:28:53.123Z,99324
2023-03-24T19:34:48.587Z,99339
2023-03-24T19:41:39.976Z,99346
2023-03-24T19:47:34.287Z,99354
2023-03-24T19:53:29.194Z,99356
2023-03-24T19:59:29.562Z,99350
2023-03-24T20:05:22.193Z,99352
2023-03-24T20:11:17.526Z,99346
2023-03-24T20:17:14.002Z,99355
2023-03-24T20:23:23.882Z,99340
2023-03-24T20:29:15.097Z,99339
2023-03-24T20:35:07.674Z,99345
2023-03-24T20:46:59.543Z,99341
2023-03-24T20:52:54.481Z,99330
2023-03-24T20:59:21.862Z,99326
2023-03-24T21:05:25.588Z,99303
2023-03-24T21:11:28.781Z,99320
2023-03-24T21:17:21.720Z,99317
2023-03-24T21:23:12.975Z,99324
2023-03-24T21:29:05.851Z,99325
2023-03-24T21:34:59.539Z,99316
2023-03-24T21:40:54.983Z,99331
2023-03-24T21:46:51.534Z,99325
2023-03-24T21:52:43.429Z,99334
2023-03-24T21:58:36.885Z,99343
2023-03-24T22:04:39.223Z,99352
2023-03-24T22:10:41.392Z,99357
2023-03-24T22:17:38.761Z,99346
2023-03-24T22:23:31.705Z,99341
2023-03-24T22:29:25.324Z,99350
2023-03-24T22:35:17.882Z,99360
2023-03-24T22:41:09.446Z,99355
2023-03-24T22:47:06.343Z,99358
2023-03-24T22:53:00.046Z,99353
2023-03-24T22:58:53.089Z,99355
2023-03-24T23:04:46.103Z,99374
2023-03-24T23:10:36.183Z,99375
2023-03-24T23:16:32.276Z,99368
2023-03-24T23:29:32.500Z,99372
2023-03-24T23:35:39.482Z,99380
2023-03-24T23:41:44.036Z,99378
2023-03-24T23:47:38.241Z,99389
2023-03-24T23:53:38.554Z,99386
2023-03-24T23:59:33.746Z,99382
